Time;durP1;ratioP1;P1;durP2;ratioP2;P2;SDS_P1;SDS_P2;PMS_P1;PMS_P2;Temp;Humidity;BMP_temperature;BMP_pressure;BME280_temperature;BME280_humidity;BME280_pressure;Samples;Min_cycle;Max_cycle;Signal;HPM_P1;HPM_P2
2022/10/07 00:00:39;;;;;;;12.53;3.20;;;10.40;91.20;;;;;;5039088;28;20049;-85
2022/10/07 00:03:05;;;;;;;12.03;3.10;;;10.50;91.20;;;;;;5033896;28;20049;-85
2022/10/07 00:05:31;;;;;;;12.93;2.87;;;10.50;91.20;;;;;;5032081;28;20478;-86
2022/10/07 00:08:02;;;;;;;8.40;3.83;;;10.50;91.30;;;;;;5032345;28;20063;-86
2022/10/07 00:10:28;;;;;;;14.40;3.33;;;10.50;91.30;;;;;;5032382;28;20466;-85
2022/10/07 00:12:54;;;;;;;10.50;2.63;;;10.50;91.30;;;;;;5033652;28;20096;-81
2022/10/07 00:15:22;;;;;;;9.70;2.73;;;10.40;91.40;;;;;;5015959;28;20114;-81
2022/10/07 00:17:48;;;;;;;13.23;3.80;;;10.40;91.40;;;;;;5032391;28;20033;-81
2022/10/07 00:20:13;;;;;;;11.23;2.87;;;10.40;91.40;;;;;;5032330;28;20533;-81
2022/10/07 00:22:45;;;;;;;9.90;3.50;;;10.40;91.50;;;;;;5031548;28;20034;-81
2022/10/07 00:25:10;;;;;;;10.27;3.30;;;10.40;91.50;;;;;;5031792;28;20030;-81
2022/10/07 00:27:36;;;;;;;10.10;2.57;;;10.40;91.60;;;;;;5031808;28;20538;-81
2022/10/07 00:30:02;;;;;;;12.43;3.17;;;10.30;91.60;;;;;;5031905;28;20052;-81
2022/10/07 00:32:28;;;;;;;10.50;3.03;;;10.30;91.70;;;;;;5032019;28;20392;-85
2022/10/07 00:34:53;;;;;;;11.10;3.27;;;10.30;91.80;;;;;;5032756;28;20026;-85
2022/10/07 00:37:19;;;;;;;9.40;3.27;;;10.40;91.90;;;;;;5036253;28;20080;-85
2022/10/07 00:39:45;;;;;;;10.00;2.70;;;10.30;91.90;;;;;;5037127;28;20026;-85
2022/10/07 00:42:13;;;;;;;12.03;2.80;;;10.30;92.00;;;;;;5035854;28;20026;-85
2022/10/07 00:44:44;;;;;;;13.27;2.87;;;10.30;92.10;;;;;;5019067;28;20030;-85
2022/10/07 00:47:33;;;;;;;13.73;3.17;;;10.30;92.10;;;;;;5035944;28;20026;-85
2022/10/07 00:50:16;;;;;;;8.83;3.37;;;10.30;92.10;;;;;;5035982;28;20025;-86
2022/10/07 00:52:49;;;;;;;9.40;3.17;;;10.20;92.10;;;;;;5035877;28;20022;-85
2022/10/07 00:55:19;;;;;;;10.10;2.53;;;10.20;92.20;;;;;;5035984;28;20116;-85
2022/10/07 00:57:47;;;;;;;9.57;3.57;;;10.30;92.30;;;;;;5035820;28;20025;-85
2022/10/07 01:00:13;;;;;;;12.63;3.10;;;10.20;92.40;;;;;;5035515;28;20389;-85
2022/10/07 01:02:39;;;;;;;14.83;3.73;;;10.20;92.40;;;;;;5018848;28;20057;-86
2022/10/07 01:05:08;;;;;;;12.47;2.93;;;10.20;92.50;;;;;;5036685;28;20021;-85
2022/10/07 01:07:34;;;;;;;18.93;3.83;;;10.20;92.80;;;;;;5035328;28;20545;-85
2022/10/07 01:10:01;;;;;;;9.37;3.37;;;10.10;92.60;;;;;;5035745;28;20025;-85
2022/10/07 01:12:32;;;;;;;11.97;3.00;;;10.10;92.60;;;;;;5035339;28;20014;-86
2022/10/07 01:15:24;;;;;;;7.40;2.93;;;10.10;92.70;;;;;;5035360;28;20025;-85
2022/10/07 01:18:20;;;;;;;13.40;4.10;;;10.10;92.70;;;;;;5035104;28;20033;-85
2022/10/07 01:20:50;;;;;;;14.37;3.33;;;10.10;92.80;;;;;;5032323;28;20124;-84
2022/10/07 01:23:47;;;;;;;9.63;2.90;;;10.00;92.80;;;;;;5035124;28;20017;-85
2022/10/07 01:26:22;;;;;;;12.70;3.30;;;10.00;92.90;;;;;;5035274;28;20037;-85
2022/10/07 01:29:01;;;;;;;8.80;2.60;;;10.10;93.00;;;;;;5035034;28;20033;-86
2022/10/07 01:31:35;;;;;;;11.50;2.80;;;10.10;93.00;;;;;;5035185;28;20064;-85
2022/10/07 01:34:02;;;;;;;;;;;10.00;93.00;;;;;;5035727;28;20486;-85
2022/10/07 01:36:28;;;;;;;7.93;2.90;;;10.00;93.10;;;;;;5034802;28;20273;-84
2022/10/07 01:39:01;;;;;;;11.00;2.93;;;10.00;93.00;;;;;;5034894;28;20028;-84
2022/10/07 01:41:31;;;;;;;9.57;3.05;;;10.00;93.10;;;;;;5035042;28;20048;-84
2022/10/07 01:43:58;;;;;;;8.63;2.70;;;10.00;93.20;;;;;;5034895;28;20025;-84
2022/10/07 01:46:26;;;;;;;15.30;3.53;;;10.10;93.30;;;;;;5017357;28;20167;-84
2022/10/07 01:48:55;;;;;;;12.07;3.47;;;10.00;93.40;;;;;;5034702;28;20046;-84
2022/10/07 01:51:26;;;;;;;11.07;2.63;;;10.00;93.50;;;;;;5034530;28;20025;-85
2022/10/07 01:54:07;;;;;;;11.47;3.13;;;10.00;93.60;;;;;;5036010;28;20017;-85
2022/10/07 01:56:57;;;;;;;5.77;2.70;;;10.00;93.60;;;;;;5034582;28;20033;-85
2022/10/07 01:59:43;;;;;;;11.80;3.70;;;9.90;93.70;;;;;;5034467;28;20461;-85
2022/10/07 02:02:12;;;;;;;11.03;2.70;;;9.90;93.80;;;;;;5030112;28;20482;-85
2022/10/07 02:04:48;;;;;;;11.53;3.43;;;10.00;93.90;;;;;;5037632;28;20033;-85
2022/10/07 02:07:35;;;;;;;14.27;3.60;;;9.90;93.90;;;;;;5037586;28;20121;-84
2022/10/07 02:10:11;;;;;;;11.83;3.20;;;9.90;94.00;;;;;;5037527;28;20028;-85
2022/10/07 02:13:02;;;;;;;13.90;3.17;;;9.90;94.10;;;;;;5037760;28;20033;-86
2022/10/07 02:15:41;;;;;;;14.43;3.53;;;9.90;94.10;;;;;;5022888;28;20025;-86
2022/10/07 02:18:12;;;;;;;10.60;3.10;;;9.90;94.10;;;;;;5037487;28;20020;-85
2022/10/07 02:20:41;;;;;;;10.10;2.67;;;9.90;94.20;;;;;;5037511;28;20381;-85
2022/10/07 02:23:15;;;;;;;10.87;2.67;;;9.90;94.20;;;;;;5037784;28;20376;-85
2022/10/07 02:25:50;;;;;;;10.20;2.60;;;9.80;94.20;;;;;;5037128;28;20082;-85
2022/10/07 02:28:20;;;;;;;12.83;3.60;;;9.80;94.30;;;;;;5037588;28;20104;-85
2022/10/07 02:30:52;;;;;;;14.73;3.07;;;9.80;94.40;;;;;;5055461;28;20024;-86
2022/10/07 02:33:19;;;;;;;14.70;3.13;;;9.80;94.40;;;;;;5037111;28;20029;-85
2022/10/07 02:35:45;;;;;;;10.67;3.00;;;9.80;94.50;;;;;;5037088;28;20024;-84
2022/10/07 02:38:14;;;;;;;11.03;2.77;;;9.80;94.60;;;;;;5055102;28;20035;-84
2022/10/07 02:40:56;;;;;;;13.43;3.10;;;9.80;94.70;;;;;;5037437;28;20025;-85
2022/10/07 02:43:49;;;;;;;11.93;3.17;;;9.80;94.80;;;;;;5036818;28;20469;-85
2022/10/07 02:46:29;;;;;;;15.53;3.30;;;9.80;94.80;;;;;;5035923;28;20118;-85
2022/10/07 02:49:02;;;;;;;16.67;2.73;;;9.80;94.80;;;;;;5036066;28;20032;-85
2022/10/07 02:51:34;;;;;;;11.50;2.83;;;9.70;94.80;;;;;;5035443;28;20017;-85
2022/10/07 02:54:03;;;;;;;14.07;2.57;;;9.70;94.90;;;;;;5035530;28;20021;-85
2022/10/07 02:56:32;;;;;;;12.07;3.47;;;9.70;95.00;;;;;;5036840;28;20081;-85
2022/10/07 02:59:03;;;;;;;9.13;2.57;;;9.70;95.10;;;;;;5036579;28;20023;-85
2022/10/07 03:01:33;;;;;;;15.60;2.80;;;9.70;95.10;;;;;;5036748;28;20021;-85
2022/10/07 03:04:02;;;;;;;11.67;3.20;;;9.70;95.20;;;;;;5036283;28;20111;-85
2022/10/07 03:06:30;;;;;;;9.20;2.80;;;9.70;95.30;;;;;;5036497;28;20040;-85
2022/10/07 03:08:56;;;;;;;15.80;2.97;;;9.70;95.30;;;;;;5036576;28;20489;-85
2022/10/07 03:11:23;;;;;;;18.47;3.73;;;9.60;95.30;;;;;;5036300;28;20547;-84
2022/10/07 03:13:48;;;;;;;11.67;3.20;;;9.70;95.40;;;;;;5036636;28;20526;-84
2022/10/07 03:16:14;;;;;;;8.97;2.97;;;9.60;95.50;;;;;;5036131;28;20104;-84
2022/10/07 03:18:40;;;;;;;11.83;3.23;;;9.60;95.60;;;;;;5036067;28;20495;-84
2022/10/07 03:21:07;;;;;;;11.47;3.40;;;9.60;95.60;;;;;;5036032;28;20047;-85
2022/10/07 03:24:04;;;;;;;;;;;;;;;;;;;;;
2022/10/07 03:26:34;;;;;;;9.33;2.70;;;9.60;95.80;;;;;;5039041;28;20115;-84
2022/10/07 03:29:00;;;;;;;17.80;3.80;;;9.50;95.90;;;;;;5036131;28;20361;-85
2022/10/07 03:31:26;;;;;;;13.53;3.50;;;9.60;95.90;;;;;;5053777;28;20071;-84
2022/10/07 03:33:55;;;;;;;11.40;3.00;;;9.60;95.90;;;;;;5036290;28;20021;-85
2022/10/07 03:36:22;;;;;;;19.90;3.40;;;9.60;96.00;;;;;;5037155;28;20040;-84
2022/10/07 03:38:51;;;;;;;15.83;3.37;;;9.60;96.10;;;;;;5035800;28;20028;-85
2022/10/07 03:41:18;;;;;;;18.17;3.93;;;9.60;96.20;;;;;;5036057;28;20108;-85
2022/10/07 03:43:44;;;;;;;14.37;2.87;;;9.60;96.20;;;;;;5019370;28;20072;-85
2022/10/07 03:46:09;;;;;;;24.83;4.30;;;9.60;96.20;;;;;;5037118;28;20021;-85
2022/10/07 03:48:35;;;;;;;8.20;2.30;;;9.60;96.30;;;;;;5035639;28;20107;-85
2022/10/07 03:51:04;;;;;;;14.50;2.70;;;9.60;96.30;;;;;;5035550;28;20021;-85
2022/10/07 03:53:30;;;;;;;10.57;2.80;;;9.50;96.40;;;;;;5035575;28;20036;-85
2022/10/07 03:55:56;;;;;;;13.97;3.70;;;9.50;96.50;;;;;;5053632;28;20029;-85
2022/10/07 03:58:22;;;;;;;13.17;3.07;;;9.50;96.50;;;;;;5035754;28;20075;-85
2022/10/07 04:00:48;;;;;;;12.37;2.90;;;9.50;96.60;;;;;;5019201;28;20481;-85
2022/10/07 04:03:17;;;;;;;18.30;4.10;;;9.50;96.60;;;;;;5035658;28;20126;-86
2022/10/07 04:05:59;;;;;;;12.80;3.90;;;9.50;96.70;;;;;;5053276;28;20018;-86
2022/10/07 04:08:28;;;;;;;8.07;2.87;;;9.50;96.70;;;;;;5035680;28;20013;-85
2022/10/07 04:10:54;;;;;;;13.93;2.70;;;9.50;96.80;;;;;;5034868;28;20477;-85
2022/10/07 04:13:20;;;;;;;12.70;3.47;;;9.50;96.90;;;;;;5035420;28;20457;-85
2022/10/07 04:15:46;;;;;;;18.27;3.20;;;9.50;97.00;;;;;;5035384;28;20035;-85
2022/10/07 04:18:11;;;;;;;14.50;3.33;;;9.50;97.10;;;;;;5019353;28;20031;-85
2022/10/07 04:20:37;;;;;;;13.17;3.57;;;9.50;97.10;;;;;;5035266;28;20033;-85
2022/10/07 04:23:03;;;;;;;14.90;2.70;;;9.50;97.20;;;;;;5053213;28;20108;-84
2022/10/07 04:25:36;;;;;;;12.43;3.20;;;9.50;97.20;;;;;;5035469;28;20499;-85
2022/10/07 04:28:19;;;;;;;13.10;3.23;;;9.50;97.30;;;;;;5019711;28;20029;-85
2022/10/07 04:30:50;;;;;;;10.27;3.27;;;9.50;97.40;;;;;;5035424;28;20103;-85
2022/10/07 04:33:17;;;;;;;14.20;2.97;;;9.50;97.40;;;;;;5035232;28;20021;-85
2022/10/07 04:35:50;;;;;;;15.23;3.00;;;9.40;97.40;;;;;;5035231;28;20017;-85
2022/10/07 04:38:18;;;;;;;13.52;3.05;;;9.50;97.60;;;;;;5035369;28;20025;-85
2022/10/07 04:40:47;;;;;;;9.20;2.23;;;9.50;97.50;;;;;;5018704;28;20053;-84
2022/10/07 04:43:25;;;;;;;15.17;3.30;;;9.50;97.50;;;;;;5035211;28;20067;-85
2022/10/07 04:45:53;;;;;;;10.07;2.97;;;9.50;97.60;;;;;;5053098;28;20416;-85
2022/10/07 04:48:21;;;;;;;17.13;3.40;;;9.50;97.60;;;;;;5052017;28;20017;-85
2022/10/07 04:50:48;;;;;;;11.67;2.90;;;9.40;97.60;;;;;;5052669;28;20044;-85
2022/10/07 04:53:20;;;;;;;11.23;2.93;;;9.40;97.60;;;;;;5031310;28;20096;-85
2022/10/07 04:55:48;;;;;;;15.17;3.20;;;9.40;97.70;;;;;;5032737;28;20029;-85
2022/10/07 04:58:15;;;;;;;13.63;3.30;;;9.40;97.70;;;;;;5048796;28;20473;-85
2022/10/07 05:00:54;;;;;;;14.37;3.67;;;9.40;97.80;;;;;;5049894;28;20025;-85
2022/10/07 05:03:22;;;;;;;13.47;3.27;;;9.40;97.80;;;;;;5046798;28;20498;-85
2022/10/07 05:06:19;;;;;;;16.43;3.60;;;9.40;97.90;;;;;;5047505;28;20041;-85
2022/10/07 05:08:55;;;;;;;14.00;3.53;;;9.40;97.90;;;;;;5030959;28;20490;-87
2022/10/07 05:11:24;;;;;;;13.93;3.43;;;9.40;97.90;;;;;;5048102;28;20076;-85
2022/10/07 05:14:07;;;;;;;22.50;3.83;;;9.30;98.00;;;;;;5031731;28;20024;-85
2022/10/07 05:16:35;;;;;;;14.83;3.97;;;9.40;98.00;;;;;;5031733;28;20045;-85
2022/10/07 05:19:01;;;;;;;16.77;3.33;;;9.30;98.10;;;;;;5031593;28;20079;-84
2022/10/07 05:21:30;;;;;;;14.07;4.27;;;9.40;98.10;;;;;;5031448;28;20037;-85
2022/10/07 05:23:57;;;;;;;13.97;3.73;;;9.30;98.10;;;;;;5051544;28;20059;-85
2022/10/07 05:26:23;;;;;;;17.70;3.70;;;9.40;98.10;;;;;;5035322;28;20071;-85
2022/10/07 05:29:22;;;;;;;15.43;3.00;;;9.30;98.20;;;;;;5051553;28;20025;-85
2022/10/07 05:31:48;;;;;;;11.13;3.50;;;9.40;98.30;;;;;;5021390;28;20489;-85
2022/10/07 05:34:15;;;;;;;14.10;3.40;;;9.40;98.30;;;;;;5051888;28;20117;-85
2022/10/07 05:36:43;;;;;;;10.07;3.10;;;9.40;98.20;;;;;;5049037;28;20025;-86
2022/10/07 05:39:22;;;;;;;13.97;3.03;;;9.40;98.30;;;;;;5035116;28;20067;-86
2022/10/07 05:42:42;;;;;;;;;;;;;;;;;;;;;
2022/10/07 05:45:08;;;;;;;10.93;3.27;;;9.30;98.30;;;;;;5022676;28;20046;-80
2022/10/07 05:47:34;;;;;;;11.37;2.87;;;9.30;98.40;;;;;;5034613;28;20049;-79
2022/10/07 05:50:00;;;;;;;14.30;2.97;;;9.30;98.40;;;;;;5017642;28;20049;-79
2022/10/07 05:52:25;;;;;;;14.27;4.07;;;9.40;98.40;;;;;;5034021;28;20029;-79
2022/10/07 05:54:51;;;;;;;10.77;3.30;;;9.30;98.40;;;;;;5034122;28;20029;-79
2022/10/07 05:57:17;;;;;;;12.77;2.97;;;9.40;98.40;;;;;;5001248;28;20124;-79
2022/10/07 05:59:43;;;;;;;8.70;2.53;;;9.30;98.50;;;;;;5031553;28;20021;-79
2022/10/07 06:02:14;;;;;;;15.53;3.00;;;9.40;98.50;;;;;;5002645;28;20055;-79
2022/10/07 06:04:43;;;;;;;7.43;2.17;;;9.40;98.50;;;;;;5020625;28;20489;-80
2022/10/07 06:07:09;;;;;;;15.37;3.43;;;9.40;98.50;;;;;;5037803;28;20044;-80
2022/10/07 06:15:08;;;;;;;12.73;3.17;;;9.40;98.50;;;;;;5052728;28;20051;-80
2022/10/07 06:17:41;;;;;;;11.33;2.97;;;9.50;98.60;;;;;;5034619;28;20021;-80
2022/10/07 06:20:07;;;;;;;14.03;3.33;;;9.40;98.70;;;;;;5036905;28;20107;-79
2022/10/07 06:22:32;;;;;;;15.93;2.80;;;9.50;98.70;;;;;;5028789;28;20025;-80
2022/10/07 06:25:01;;;;;;;14.60;3.43;;;9.40;98.60;;;;;;5004368;28;20167;-80
2022/10/07 06:27:27;;;;;;;13.03;2.57;;;9.50;98.70;;;;;;5036680;28;20020;-80
2022/10/07 06:29:53;;;;;;;20.37;3.00;;;9.50;98.70;;;;;;5041755;28;20096;-79
2022/10/07 06:32:18;;;;;;;12.93;3.50;;;9.60;98.80;;;;;;5020704;28;20075;-80
2022/10/07 06:34:44;;;;;;;11.23;2.47;;;9.60;98.80;;;;;;5036540;28;20488;-81
2022/10/07 06:37:10;;;;;;;12.03;2.40;;;9.60;98.80;;;;;;5020632;28;20124;-80
2022/10/07 06:39:35;;;;;;;12.00;3.03;;;9.70;98.90;;;;;;5054994;28;20100;-80
2022/10/07 06:42:01;;;;;;;12.63;2.90;;;9.70;98.90;;;;;;5020651;28;20438;-80
2022/10/07 06:44:27;;;;;;;9.83;2.47;;;9.70;98.80;;;;;;5037046;28;20037;-80
2022/10/07 06:46:53;;;;;;;18.90;3.30;;;9.90;98.80;;;;;;5036494;28;20021;-81
2022/10/07 06:49:18;;;;;;;9.97;2.80;;;9.90;98.80;;;;;;5054691;28;20017;-81
2022/10/07 06:51:45;;;;;;;12.10;2.70;;;9.90;98.70;;;;;;5036989;28;20024;-82
2022/10/07 06:54:11;;;;;;;16.10;2.80;;;10.00;98.60;;;;;;5054629;28;20035;-82
2022/10/07 06:56:40;;;;;;;15.50;3.13;;;9.90;98.60;;;;;;5037157;28;20107;-80
2022/10/07 06:59:06;;;;;;;13.10;3.93;;;10.00;98.80;;;;;;5054792;28;20025;-81
2022/10/07 07:01:32;;;;;;;14.63;3.23;;;10.00;98.50;;;;;;5054502;28;20017;-81
2022/10/07 07:03:58;;;;;;;16.83;3.17;;;10.10;98.50;;;;;;5003539;28;20045;-82
2022/10/07 07:06:24;;;;;;;12.57;3.20;;;10.20;98.50;;;;;;5036378;28;20082;-81
2022/10/07 07:08:53;;;;;;;11.97;3.87;;;10.20;98.50;;;;;;5054313;28;20487;-81
2022/10/07 07:11:39;;;;;;;15.00;3.57;;;10.20;98.40;;;;;;5036904;28;20482;-82
2022/10/07 07:14:14;;;;;;;13.17;2.60;;;10.30;98.50;;;;;;5036356;28;20078;-82
2022/10/07 07:16:40;;;;;;;12.80;4.20;;;10.30;98.40;;;;;;5019884;28;20074;-81
2022/10/07 07:19:09;;;;;;;9.83;2.60;;;10.40;98.40;;;;;;5054010;28;20042;-80
2022/10/07 07:21:37;;;;;;;18.17;3.57;;;10.50;98.40;;;;;;5053890;28;20017;-80
2022/10/07 07:24:05;;;;;;;12.83;3.53;;;10.50;98.30;;;;;;5053908;28;20020;-81
2022/10/07 07:26:31;;;;;;;13.53;3.53;;;10.60;98.30;;;;;;5019935;28;20186;-81
2022/10/07 07:29:02;;;;;;;14.47;4.30;;;10.70;98.20;;;;;;5053712;28;20098;-80
2022/10/07 07:31:32;;;;;;;14.00;3.60;;;10.70;98.20;;;;;;5035740;28;20056;-80
2022/10/07 07:34:00;;;;;;;15.55;3.15;;;10.80;98.20;;;;;;5050670;28;20017;-81
2022/10/07 07:36:28;;;;;;;16.40;3.97;;;10.90;98.10;;;;;;5035089;28;20017;-80
2022/10/07 07:39:10;;;;;;;16.83;4.93;;;11.00;98.00;;;;;;5035791;28;20388;-79
2022/10/07 07:41:40;;;;;;;16.43;4.17;;;11.00;97.90;;;;;;5053627;28;20029;-79
2022/10/07 07:44:10;;;;;;;13.57;4.03;;;11.10;97.80;;;;;;5035795;28;20033;-80
2022/10/07 07:46:42;;;;;;;13.55;3.65;;;11.10;97.70;;;;;;5034832;28;20465;-81
2022/10/07 07:49:11;;;;;;;18.55;4.95;;;11.10;97.50;;;;;;5053226;28;20083;-80
2022/10/07 07:51:44;;;;;;;20.15;5.20;;;11.20;97.50;;;;;;5053513;28;20025;-79
2022/10/07 07:54:14;;;;;;;16.55;4.82;;;11.20;97.40;;;;;;5035474;28;20025;-80
2022/10/07 07:56:48;;;;;;;21.45;4.97;;;11.20;97.20;;;;;;5019277;28;20385;-79
2022/10/07 07:59:15;;;;;;;;;;;11.30;97.20;;;;;;5014054;28;20033;-79
2022/10/07 08:01:43;;;;;;;17.33;3.93;;;11.30;97.20;;;;;;5050913;28;19913;-82
2022/10/07 08:04:09;;;;;;;13.13;3.35;;;11.20;97.10;;;;;;5053175;28;20481;-79
2022/10/07 08:06:34;;;;;;;14.05;3.25;;;11.40;97.10;;;;;;5052039;28;20029;-80
2022/10/07 08:09:00;;;;;;;10.90;3.30;;;11.50;97.00;;;;;;5035506;28;20017;-81
2022/10/07 08:11:28;;;;;;;9.43;2.35;;;11.50;97.00;;;;;;5053308;28;20048;-81
2022/10/07 08:13:54;;;;;;;10.63;2.92;;;11.70;97.10;;;;;;5035531;28;20029;-80
2022/10/07 08:16:22;;;;;;;12.88;2.25;;;11.70;97.00;;;;;;5035135;28;20495;-81
2022/10/07 08:18:49;;;;;;;10.98;2.45;;;11.80;96.90;;;;;;5035135;28;20465;-81
2022/10/07 08:21:19;;;;;;;13.15;3.08;;;11.90;96.80;;;;;;5035320;28;20029;-81
2022/10/07 08:23:46;;;;;;;12.48;2.63;;;12.00;96.70;;;;;;5035036;28;20477;-80
2022/10/07 08:26:12;;;;;;;13.90;3.08;;;12.10;96.70;;;;;;5034946;28;20032;-80
2022/10/07 08:28:39;;;;;;;12.55;2.80;;;12.20;96.70;;;;;;5018667;28;20021;-80
2022/10/07 08:31:19;;;;;;;10.18;2.65;;;12.30;96.60;;;;;;5018853;28;20082;-80
2022/10/07 08:33:47;;;;;;;9.13;2.63;;;12.50;96.30;;;;;;5053423;28;20025;-79
2022/10/07 08:36:19;;;;;;;17.23;2.67;;;12.50;96.00;;;;;;5035958;28;20423;-79
2022/10/07 08:38:45;;;;;;;12.75;2.15;;;12.60;95.60;;;;;;5054349;28;20040;-85
2022/10/07 08:41:32;;;;;;;14.75;2.65;;;12.70;95.50;;;;;;5054773;28;20028;-85
2022/10/07 08:44:17;;;;;;;13.27;2.20;;;12.70;95.30;;;;;;5035320;28;20542;-87
2022/10/07 08:46:56;;;;;;;10.90;1.83;;;12.80;95.10;;;;;;5035761;28;20074;-85
2022/10/07 08:49:30;;;;;;;11.27;1.55;;;12.90;95.10;;;;;;5035964;28;20473;-84
2022/10/07 08:52:25;;;;;;;11.75;2.30;;;13.00;95.00;;;;;;5035569;28;20028;-87
2022/10/07 08:54:58;;;;;;;14.13;4.07;;;13.20;94.90;;;;;;5034588;28;20131;-85
2022/10/07 08:57:48;;;;;;;12.45;2.13;;;13.40;94.50;;;;;;5038270;28;20028;-89
2022/10/07 09:00:19;;;;;;;11.45;2.58;;;13.50;94.30;;;;;;5040100;28;20029;-83
2022/10/07 09:03:06;;;;;;;13.82;2.20;;;13.70;94.10;;;;;;5040866;28;20085;-86
2022/10/07 09:05:43;;;;;;;10.18;1.60;;;13.70;93.90;;;;;;5039747;28;20029;-84
2022/10/07 09:08:27;;;;;;;14.23;2.47;;;13.90;93.50;;;;;;5040429;28;20029;-88
2022/10/07 09:10:54;;;;;;;;;;;14.10;93.50;;;;;;5040122;28;20017;-85
2022/10/07 09:13:32;;;;;;;12.55;2.35;;;14.20;93.10;;;;;;5057523;28;19911;-89
2022/10/07 09:16:07;;;;;;;12.60;2.45;;;14.40;93.00;;;;;;5030344;28;20382;-86
2022/10/07 09:18:44;;;;;;;11.15;1.70;;;14.60;92.70;;;;;;5039503;28;20417;-87
2022/10/07 09:21:21;;;;;;;12.50;1.73;;;14.80;92.40;;;;;;5056329;28;20111;-86
2022/10/07 09:23:55;;;;;;;13.13;2.72;;;14.90;91.80;;;;;;5057276;28;20428;-85
2022/10/07 09:26:21;;;;;;;13.68;2.08;;;15.00;90.80;;;;;;5056041;28;20028;-83
2022/10/07 09:28:56;;;;;;;11.55;1.65;;;15.10;90.30;;;;;;5055987;28;20017;-88
2022/10/07 09:31:24;;;;;;;10.95;1.95;;;15.10;90.00;;;;;;5055612;28;20033;-86
2022/10/07 09:33:51;;;;;;;10.57;2.33;;;15.10;89.60;;;;;;5040042;28;20032;-87
2022/10/07 09:36:24;;;;;;;10.43;1.70;;;15.10;88.90;;;;;;5055675;28;20029;-87
2022/10/07 09:39:00;;;;;;;11.77;2.22;;;15.00;88.60;;;;;;5057102;28;20500;-87
2022/10/07 09:41:37;;;;;;;13.23;1.95;;;15.10;88.50;;;;;;5039954;28;20085;-84
2022/10/07 09:44:22;;;;;;;11.55;2.28;;;15.20;88.40;;;;;;5039693;28;20033;-83
2022/10/07 09:46:55;;;;;;;8.38;1.75;;;15.20;88.30;;;;;;5056696;28;20124;-84
2022/10/07 09:49:27;;;;;;;14.90;1.55;;;15.30;87.90;;;;;;5055366;28;20029;-87
2022/10/07 09:52:17;;;;;;;9.90;1.67;;;15.30;88.40;;;;;;5055301;28;20029;-87
2022/10/07 09:54:47;;;;;;;8.05;1.13;;;15.40;87.60;;;;;;5055206;28;20135;-86
2022/10/07 09:57:35;;;;;;;10.68;1.80;;;15.50;87.80;;;;;;5056654;28;20025;-88
2022/10/07 10:00:13;;;;;;;12.10;1.50;;;15.70;87.40;;;;;;5055250;28;20033;-83
2022/10/07 10:02:41;;;;;;;11.18;1.75;;;15.80;86.10;;;;;;5055295;28;20136;-85
2022/10/07 10:05:32;;;;;;;9.35;1.45;;;15.80;85.60;;;;;;5054633;28;20075;-83
2022/10/07 10:08:29;;;;;;;12.30;1.40;;;15.90;85.10;;;;;;5054915;28;20049;-83
2022/10/07 10:11:03;;;;;;;10.70;1.80;;;16.00;84.90;;;;;;5053521;28;20033;-82
2022/10/07 10:13:33;;;;;;;;;;;16.10;85.00;;;;;;5030971;28;20029;-82
2022/10/07 10:16:00;;;;;;;13.07;1.25;;;16.10;84.10;;;;;;5037416;28;19916;-81
2022/10/07 10:18:40;;;;;;;6.72;0.98;;;16.20;83.80;;;;;;5037761;28;20429;-80
2022/10/07 10:21:31;;;;;;;9.27;1.27;;;16.30;83.40;;;;;;5020859;28;20025;-83
2022/10/07 10:26:24;;;;;;;10.25;1.35;;;16.40;82.40;;;;;;5043733;28;20571;-80
2022/10/07 10:27:08;;;;;;;7.68;0.85;;;16.60;81.60;;;;;;5053096;28;20116;-82
2022/10/07 10:29:55;;;;;;;6.55;0.95;;;16.70;81.20;;;;;;5050382;28;20108;-81
2022/10/07 10:32:44;;;;;;;11.75;1.58;;;16.90;80.40;;;;;;5034406;28;20389;-81
2022/10/07 10:35:28;;;;;;;8.25;0.80;;;17.00;79.90;;;;;;5019128;28;20022;-84
2022/10/07 10:38:19;;;;;;;6.43;1.38;;;17.10;79.30;;;;;;5017139;28;20043;-82
2022/10/07 10:40:51;;;;;;;8.00;1.10;;;17.20;79.40;;;;;;5029018;28;20040;-82
2022/10/07 10:43:29;;;;;;;10.45;1.55;;;17.40;79.00;;;;;;5045510;28;20440;-81
2022/10/07 10:46:01;;;;;;;9.48;1.45;;;17.50;79.00;;;;;;5036115;28;20037;-82
2022/10/07 10:48:35;;;;;;;9.25;1.35;;;17.70;78.70;;;;;;5053192;28;20376;-84
2022/10/07 10:51:32;;;;;;;7.95;1.13;;;18.00;78.10;;;;;;5034077;28;20095;-80
2022/10/07 10:54:09;;;;;;;8.10;1.10;;;18.30;78.00;;;;;;5035404;28;20523;-81
2022/10/07 10:56:53;;;;;;;6.50;1.00;;;19.10;78.50;;;;;;5036077;28;20021;-82
2022/10/07 10:59:47;;;;;;;5.00;1.08;;;19.80;75.80;;;;;;5036405;28;20051;-82
2022/10/07 11:02:39;;;;;;;7.10;1.15;;;20.50;74.30;;;;;;5035378;28;20074;-82
2022/10/07 11:05:05;;;;;;;6.30;1.20;;;21.40;70.40;;;;;;5058986;28;20072;-81
2022/10/07 11:07:43;;;;;;;5.20;0.90;;;22.20;71.30;;;;;;5054713;28;20025;-82
2022/10/07 11:10:32;;;;;;;7.15;1.13;;;22.80;67.70;;;;;;5054275;28;20093;-82
2022/10/07 11:13:14;;;;;;;6.85;1.20;;;23.30;64.10;;;;;;5054494;28;20040;-81
2022/10/07 11:16:07;;;;;;;9.48;1.40;;;23.80;62.70;;;;;;5036353;28;20116;-83
2022/10/07 11:18:40;;;;;;;5.57;1.00;;;24.40;59.90;;;;;;5010137;28;20119;-84
2022/10/07 11:21:09;;;;;;;;;;;24.90;59.50;;;;;;5037022;28;20033;-83
2022/10/07 11:23:49;;;;;;;7.63;1.23;;;25.40;56.90;;;;;;5036558;28;20040;-83
2022/10/07 11:26:32;;;;;;;8.43;1.33;;;25.70;55.80;;;;;;5054163;28;20032;-85
2022/10/07 11:29:08;;;;;;;7.85;1.77;;;26.00;54.70;;;;;;5054334;28;20017;-83
2022/10/07 11:31:38;;;;;;;6.70;1.50;;;26.20;54.00;;;;;;5054161;28;20417;-81
2022/10/07 11:34:14;;;;;;;8.10;1.33;;;26.60;53.80;;;;;;5035969;28;20047;-83
2022/10/07 11:37:05;;;;;;;5.32;1.13;;;27.20;53.80;;;;;;5033891;28;20497;-82
2022/10/07 11:39:35;;;;;;;6.75;1.05;;;27.60;51.40;;;;;;5023145;28;20423;-80
2022/10/07 11:42:31;;;;;;;5.13;1.05;;;27.90;50.50;;;;;;5052978;28;20091;-85
2022/10/07 11:45:07;;;;;;;7.38;1.10;;;28.20;49.10;;;;;;5030980;28;20094;-83
2022/10/07 11:47:40;;;;;;;6.85;1.02;;;28.40;47.60;;;;;;5053930;28;20083;-79
2022/10/07 11:50:15;;;;;;;6.72;1.67;;;28.50;47.00;;;;;;5036189;28;20029;-84
2022/10/07 11:52:44;;;;;;;8.73;1.40;;;28.60;47.30;;;;;;5035977;28;20024;-83
2022/10/07 11:55:21;;;;;;;5.28;0.90;;;28.60;46.60;;;;;;5035864;28;20499;-84
2022/10/07 11:58:24;;;;;;;6.15;0.93;;;28.60;45.60;;;;;;5054068;28;20079;-83
2022/10/07 12:00:53;;;;;;;7.32;1.65;;;28.70;44.90;;;;;;5040432;28;20037;-82
2022/10/07 12:03:18;;;;;;;17.05;2.00;;;28.90;45.00;;;;;;5053182;28;20041;-83
2022/10/07 12:05:51;;;;;;;6.82;1.27;;;29.00;44.80;;;;;;5036087;28;20552;-84
2022/10/07 12:08:31;;;;;;;8.18;1.23;;;29.10;44.00;;;;;;5053564;28;20086;-84
2022/10/07 12:11:12;;;;;;;5.18;0.70;;;29.20;43.90;;;;;;5035842;28;20025;-82
2022/10/07 12:13:41;;;;;;;7.75;1.17;;;29.30;43.90;;;;;;5035652;28;20040;-85
2022/10/07 12:16:22;;;;;;;5.07;1.15;;;29.50;43.80;;;;;;5053582;28;20075;-83
2022/10/07 12:19:18;;;;;;;9.38;1.25;;;29.70;43.00;;;;;;5035653;28;20554;-81
2022/10/07 12:22:01;;;;;;;9.23;1.50;;;29.90;42.90;;;;;;5049401;28;20053;-84
2022/10/07 12:24:36;;;;;;;6.72;1.00;;;29.90;41.50;;;;;;5053849;28;20025;-84
2022/10/07 12:27:06;;;;;;;9.18;1.08;;;29.90;41.50;;;;;;5035785;28;20053;-84
2022/10/07 12:29:57;;;;;;;5.97;1.40;;;30.10;41.40;;;;;;5036728;28;20473;-84
2022/10/07 12:32:38;;;;;;;5.60;1.10;;;30.20;41.40;;;;;;5060131;28;20025;-86
2022/10/07 12:35:28;;;;;;;5.95;1.13;;;30.40;41.60;;;;;;5043560;28;20021;-82
2022/10/07 12:38:11;;;;;;;5.82;0.90;;;30.70;40.90;;;;;;5043274;28;20420;-84
2022/10/07 12:40:38;;;;;;;6.07;1.13;;;30.80;40.30;;;;;;5042325;28;20424;-83
2022/10/07 12:43:23;;;;;;;7.55;1.10;;;30.80;40.60;;;;;;5026419;28;20049;-84
2022/10/07 12:45:50;;;;;;;5.72;0.98;;;30.70;40.20;;;;;;5042135;28;20029;-84
2022/10/07 12:48:20;;;;;;;6.50;1.00;;;30.60;40.50;;;;;;5060081;28;20100;-85
2022/10/07 12:50:50;;;;;;;6.22;1.05;;;30.70;40.40;;;;;;5060280;28;20085;-83
2022/10/07 12:53:18;;;;;;;10.13;1.35;;;30.90;40.10;;;;;;5042953;28;20032;-86
2022/10/07 12:55:49;;;;;;;6.85;1.42;;;31.10;39.90;;;;;;5042020;28;20017;-83
2022/10/07 13:01:57;;;;;;;7.30;1.02;;;31.50;38.80;;;;;;5060257;28;20400;-83
2022/10/07 13:04:51;;;;;;;7.95;1.10;;;31.50;38.30;;;;;;5041862;28;20048;-86
2022/10/07 13:07:19;;;;;;;8.90;1.38;;;31.40;38.20;;;;;;5042337;28;20021;-84
2022/10/07 13:10:05;;;;;;;7.78;1.13;;;31.40;38.00;;;;;;5041665;28;20028;-83
2022/10/07 13:12:52;;;;;;;6.75;1.13;;;31.30;38.10;;;;;;5041843;28;20075;-85
2022/10/07 13:15:43;;;;;;;7.05;1.40;;;31.40;37.90;;;;;;5041751;28;20033;-84
2022/10/07 13:18:16;;;;;;;6.90;1.60;;;31.50;37.70;;;;;;5041842;28;20025;-85
2022/10/07 13:20:42;;;;;;;;;;;31.50;37.40;;;;;;5041937;28;20028;-87
2022/10/07 13:23:20;;;;;;;7.53;0.93;;;31.50;37.30;;;;;;5059675;28;19912;-85
2022/10/07 13:25:53;;;;;;;4.30;1.00;;;31.40;37.60;;;;;;5041724;28;20029;-83
2022/10/07 13:28:23;;;;;;;7.63;1.25;;;31.50;37.80;;;;;;5042297;28;20025;-83